Time;durP1;ratioP1;P1;durP2;ratioP2;P2;SDS_P1;SDS_P2;PMS_P1;PMS_P2;Temp;Humidity;BMP_temperature;BMP_pressure;BME280_temperature;BME280_humidity;BME280_pressure;Samples;Min_cycle;Max_cycle;Signal;HPM_P1;HPM_P2
2023/04/06 00:01:57;;;;;;;0.57;0.57;;;22.10;76.10;;;;;;6376116;28;20047;-53
2023/04/06 00:04:59;;;;;;;0.57;0.57;;;22.10;75.60;;;;;;6376179;28;20043;-55
2023/04/06 00:08:01;;;;;;;0.50;0.50;;;22.20;76.30;;;;;;6376158;28;20046;-55
2023/04/06 00:11:03;;;;;;;0.50;0.40;;;22.20;53.60;;;;;;6357614;28;20092;-52
2023/04/06 00:14:04;;;;;;;0.68;0.60;;;22.00;76.70;;;;;;6376166;28;20051;-55
2023/04/06 00:17:07;;;;;;;0.60;0.50;;;;;;;;;;6376264;28;20036;-53
2023/04/06 00:20:11;;;;;;;0.45;0.45;;;21.90;77.30;;;;;;6376094;28;20035;-54
2023/04/06 00:23:13;;;;;;;0.50;0.50;;;;;;;;;;6375919;28;20040;-54
2023/04/06 00:26:16;;;;;;;0.47;0.47;;;21.90;77.60;;;;;;6376438;28;20047;-48
2023/04/06 00:29:20;;;;;;;0.60;0.50;;;21.70;63.50;;;;;;6376184;28;20040;-53
2023/04/06 00:32:21;;;;;;;;;;;22.20;55.60;;;;;;6376163;28;20035;-53
2023/04/06 00:35:24;;;;;;;0.70;0.50;;;;;;;;;;6323539;28;20302;-54
2023/04/06 00:38:26;;;;;;;0.50;0.40;;;;;;;;;;6375952;28;20137;-55
2023/04/06 00:41:28;;;;;;;0.63;0.40;;;22.10;77.70;;;;;;6375356;28;20039;-54
2023/04/06 00:44:31;;;;;;;0.85;0.60;;;;;;;;;;6375153;28;20059;-53
2023/04/06 00:47:34;;;;;;;0.70;0.60;;;;;;;;;;6375134;28;20047;-55
2023/04/06 00:50:35;;;;;;;0.60;0.60;;;22.50;83.80;;;;;;6375296;28;20120;-55
2023/04/06 00:53:37;;;;;;;0.50;0.50;;;22.00;75.20;;;;;;6375148;28;20098;-54
2023/04/06 00:56:39;;;;;;;0.60;0.60;;;22.10;74.80;;;;;;6374919;28;20498;-54
2023/04/06 00:59:41;;;;;;;0.50;0.50;;;22.10;59.30;;;;;;6375316;28;20054;-49
2023/04/06 01:02:46;;;;;;;1.20;0.50;;;22.20;74.90;;;;;;6357552;28;20148;-53
2023/04/06 01:05:55;;;;;;;0.50;0.50;;;22.10;75.30;;;;;;6374773;28;20051;-56
2023/04/06 01:09:00;;;;;;;0.52;0.50;;;;;;;;;;6374914;28;20035;-53
2023/04/06 01:12:04;;;;;;;0.73;0.47;;;21.80;74.70;;;;;;6356994;28;20051;-54
2023/04/06 01:15:10;;;;;;;0.82;0.47;;;22.10;74.80;;;;;;6374732;28;20043;-55
2023/04/06 01:18:15;;;;;;;0.40;0.40;;;21.90;74.80;;;;;;6374983;28;20423;-54
2023/04/06 01:21:27;;;;;;;0.57;0.40;;;21.70;53.80;;;;;;6374736;28;20088;-54
2023/04/06 01:24:49;;;;;;;0.50;0.43;;;21.60;74.30;;;;;;6374384;28;20046;-54
2023/04/06 01:27:58;;;;;;;0.68;0.57;;;21.90;74.60;;;;;;6374368;28;20027;-53
2023/04/06 01:31:17;;;;;;;0.50;0.47;;;21.90;74.90;;;;;;6374657;28;20118;-54
2023/04/06 01:34:24;;;;;;;0.65;0.63;;;21.50;74.50;;;;;;6374467;28;20506;-55
2023/04/06 01:37:26;;;;;;;0.68;0.60;;;21.90;75.30;;;;;;6374171;28;20126;-54
2023/04/06 01:40:31;;;;;;;0.75;0.55;;;22.30;75.60;;;;;;6374577;28;20050;-53
2023/04/06 01:43:33;;;;;;;0.35;0.30;;;21.80;75.00;;;;;;6374376;28;20092;-53
2023/04/06 01:46:39;;;;;;;0.60;0.50;;;22.20;75.40;;;;;;6374127;28;20048;-55
2023/04/06 01:49:42;;;;;;;0.40;0.40;;;21.70;74.90;;;;;;6374716;28;20117;-56
2023/04/06 01:52:45;;;;;;;0.43;0.40;;;21.80;75.20;;;;;;6373908;27;20524;-55
2023/04/06 01:55:50;;;;;;;0.60;0.60;;;21.50;75.00;;;;;;6373966;28;20074;-54
2023/04/06 01:59:06;;;;;;;0.50;0.43;;;21.90;75.40;;;;;;6374166;28;20054;-55
2023/04/06 02:02:14;;;;;;;0.60;0.45;;;21.90;75.40;;;;;;6373887;28;20103;-53
2023/04/06 02:05:24;;;;;;;0.60;0.52;;;21.80;75.60;;;;;;6373743;28;20108;-54
2023/04/06 02:08:28;;;;;;;0.43;0.43;;;21.90;75.50;;;;;;6374296;28;20031;-55
2023/04/06 02:11:30;;;;;;;0.40;0.32;;;21.60;73.00;;;;;;6374044;28;20039;-53
2023/04/06 02:14:32;;;;;;;0.40;0.40;;;22.10;52.60;;;;;;6373521;28;20478;-55
2023/04/06 02:17:35;;;;;;;0.50;0.40;;;22.10;75.90;;;;;;6355253;27;20051;-54
2023/04/06 02:20:37;;;;;;;0.40;0.40;;;21.60;75.50;;;;;;6372612;28;20046;-54
2023/04/06 02:23:38;;;;;;;0.50;0.47;;;21.90;75.60;;;;;;6374153;28;20046;-52
2023/04/06 02:26:40;;;;;;;;;;;22.00;55.00;;;;;;6373590;28;20051;-54
2023/04/06 02:29:42;;;;;;;0.50;0.40;;;21.50;75.70;;;;;;6373462;28;19961;-53
2023/04/06 02:32:44;;;;;;;0.60;0.50;;;22.10;75.80;;;;;;6373962;28;20047;-54
2023/04/06 02:35:45;;;;;;;0.47;0.47;;;22.00;75.80;;;;;;6373041;28;20043;-54
2023/04/06 02:38:47;;;;;;;0.40;0.40;;;21.60;75.80;;;;;;6373374;28;20047;-54
2023/04/06 02:41:49;;;;;;;0.68;0.57;;;21.70;76.20;;;;;;6373254;28;20039;-54
2023/04/06 02:44:56;;;;;;;0.50;0.50;;;;;;;;;;6372811;28;20502;-55
2023/04/06 02:48:05;;;;;;;0.40;0.30;;;21.60;76.00;;;;;;6373230;28;20043;-53
2023/04/06 02:51:07;;;;;;;0.60;0.60;;;21.90;76.10;;;;;;6373106;28;20046;-56
2023/04/06 02:54:10;;;;;;;0.40;0.40;;;21.60;76.00;;;;;;6372871;28;20502;-55
2023/04/06 02:57:12;;;;;;;0.50;0.40;;;22.00;76.50;;;;;;6373163;28;20050;-54
2023/04/06 03:00:20;;;;;;;0.43;0.43;;;22.00;76.70;;;;;;6373313;28;20062;-55
2023/04/06 03:03:22;;;;;;;0.50;0.50;;;21.50;76.80;;;;;;6373683;28;20091;-55
2023/04/06 03:06:24;;;;;;;0.75;0.60;;;21.70;77.00;;;;;;6373021;28;20436;-53
2023/04/06 03:09:30;;;;;;;0.60;0.60;;;22.00;78.10;;;;;;6373363;28;20471;-54
2023/04/06 03:12:32;;;;;;;0.47;0.47;;;21.80;55.00;;;;;;6372439;28;20047;-53
2023/04/06 03:15:47;;;;;;;0.70;0.50;;;22.00;76.60;;;;;;6372880;28;20051;-54
2023/04/06 03:18:53;;;;;;;0.40;0.40;;;21.60;76.80;;;;;;6373013;28;20047;-55
2023/04/06 03:21:54;;;;;;;0.65;0.50;;;22.00;77.40;;;;;;6373800;28;20047;-53
2023/04/06 03:24:57;;;;;;;0.50;0.50;;;21.60;76.90;;;;;;6373416;28;20107;-52
2023/04/06 03:28:02;;;;;;;0.55;0.50;;;21.60;56.00;;;;;;6374306;28;20134;-51
2023/04/06 03:31:08;;;;;;;0.50;0.43;;;21.80;77.90;;;;;;6374680;27;20043;-51
2023/04/06 03:34:24;;;;;;;0.40;0.40;;;21.60;77.20;;;;;;6376664;28;20035;-51
2023/04/06 03:37:25;;;;;;;0.50;0.35;;;21.90;77.80;;;;;;6377174;28;20494;-48
2023/04/06 03:40:31;;;;;;;0.60;0.52;;;21.60;77.80;;;;;;6377139;28;20031;-51
2023/04/06 03:43:33;;;;;;;0.70;0.40;;;21.50;77.90;;;;;;6358407;28;20046;-51
2023/04/06 03:46:35;;;;;;;0.43;0.43;;;;;;;;;;6376682;28;20097;-49
2023/04/06 03:49:37;;;;;;;0.40;0.40;;;;;;;;;;6376318;28;20050;-50
2023/04/06 03:52:44;;;;;;;0.30;0.30;;;21.70;77.80;;;;;;6358321;28;20051;-50
2023/04/06 03:55:46;;;;;;;0.57;0.40;;;21.70;77.70;;;;;;6340613;28;20047;-50
2023/04/06 03:58:50;;;;;;;0.60;0.50;;;21.60;77.20;;;;;;6376231;28;20099;-52
2023/04/06 04:01:52;;;;;;;0.70;0.70;;;21.70;77.40;;;;;;6376132;28;20039;-49
2023/04/06 04:04:53;;;;;;;0.50;0.50;;;21.60;77.00;;;;;;6376369;28;20063;-50
2023/04/06 04:07:55;;;;;;;0.77;0.57;;;21.90;65.20;;;;;;6376059;28;20047;-49
2023/04/06 04:11:02;;;;;;;0.68;0.38;;;21.70;77.10;;;;;;6375969;28;20122;-51
2023/04/06 04:14:05;;;;;;;0.68;0.60;;;21.60;77.00;;;;;;6376168;28;20042;-53
2023/04/06 04:17:06;;;;;;;0.82;0.60;;;21.50;78.20;;;;;;6375955;28;20043;-53
2023/04/06 04:20:08;;;;;;;;;;;21.40;56.50;;;;;;6376965;28;20050;-52
2023/04/06 04:23:09;;;;;;;0.50;0.40;;;21.40;78.70;;;;;;6376117;28;20417;-49
2023/04/06 04:26:11;;;;;;;0.50;0.40;;;21.40;84.60;;;;;;6375662;28;20043;-48
2023/04/06 04:29:15;;;;;;;0.55;0.50;;;21.80;57.90;;;;;;6375625;28;20081;-53
2023/04/06 04:32:17;;;;;;;0.73;0.60;;;;;;;;;;6375827;28;20050;-50
2023/04/06 04:35:20;;;;;;;0.40;0.40;;;;;;;;;;6375581;28;20075;-50
2023/04/06 04:38:22;;;;;;;0.40;0.40;;;21.50;77.20;;;;;;6375456;28;20464;-52
2023/04/06 04:41:30;;;;;;;0.45;0.40;;;21.50;76.90;;;;;;6374770;27;20043;-49
2023/04/06 04:44:34;;;;;;;0.57;0.50;;;21.30;62.00;;;;;;6375437;28;20477;-52
2023/04/06 04:47:36;;;;;;;0.40;0.40;;;21.80;82.80;;;;;;6376003;28;20114;-48
2023/04/06 04:50:39;;;;;;;0.43;0.38;;;21.80;81.90;;;;;;6375364;28;20047;-50
2023/04/06 04:53:40;;;;;;;0.40;0.40;;;21.40;80.50;;;;;;6375312;28;20043;-49
2023/04/06 04:56:51;;;;;;;0.80;0.50;;;21.50;79.70;;;;;;6374846;28;20058;-49
2023/04/06 05:00:14;;;;;;;0.45;0.30;;;21.60;70.40;;;;;;6375686;27;20092;-50
2023/04/06 05:03:22;;;;;;;0.45;0.40;;;21.20;83.70;;;;;;6357260;28;20107;-51
2023/04/06 05:06:31;;;;;;;0.40;0.35;;;21.50;80.00;;;;;;6374846;28;20054;-52
2023/04/06 05:09:33;;;;;;;0.30;0.30;;;21.40;80.00;;;;;;6374814;28;20039;-46
2023/04/06 05:12:35;;;;;;;0.28;0.28;;;21.80;56.90;;;;;;6375025;28;20137;-50
2023/04/06 05:15:42;;;;;;;0.47;0.28;;;21.50;80.40;;;;;;6374802;28;20086;-49
2023/04/06 05:18:56;;;;;;;0.30;0.30;;;21.50;79.70;;;;;;6374602;28;20047;-48
2023/04/06 05:22:01;;;;;;;0.30;0.30;;;;;;;;;;6374368;28;20055;-53
2023/04/06 05:25:08;;;;;;;0.30;0.30;;;21.30;80.50;;;;;;6374640;28;20051;-52
2023/04/06 05:28:10;;;;;;;0.40;0.40;;;21.30;80.80;;;;;;6374207;28;20039;-50
2023/04/06 05:31:14;;;;;;;0.30;0.30;;;21.50;67.70;;;;;;6374173;28;20050;-51
2023/04/06 05:34:22;;;;;;;0.20;0.20;;;21.70;80.50;;;;;;6374590;28;20075;-52
2023/04/06 05:37:25;;;;;;;0.47;0.30;;;21.70;79.30;;;;;;6374295;28;20078;-51
2023/04/06 05:40:27;;;;;;;0.22;0.22;;;21.60;80.10;;;;;;6374060;28;20108;-48
2023/04/06 05:43:29;;;;;;;0.30;0.30;;;21.20;80.40;;;;;;6374208;28;20146;-53
2023/04/06 05:46:33;;;;;;;0.30;0.30;;;21.20;74.70;;;;;;6373888;28;20046;-51
2023/04/06 05:49:38;;;;;;;0.32;0.32;;;21.30;80.60;;;;;;6373882;28;20054;-51
2023/04/06 05:52:46;;;;;;;0.45;0.45;;;21.70;81.00;;;;;;6374040;27;20099;-52
2023/04/06 05:55:51;;;;;;;0.30;0.30;;;21.60;80.80;;;;;;6373682;28;20043;-51
2023/04/06 05:58:55;;;;;;;0.40;0.40;;;21.50;80.60;;;;;;6373669;28;20051;-49
2023/04/06 06:02:02;;;;;;;0.30;0.30;;;21.40;80.70;;;;;;6374005;28;20046;-53
2023/04/06 06:05:08;;;;;;;0.40;0.40;;;21.50;62.80;;;;;;6373528;28;20043;-51
2023/04/06 06:08:11;;;;;;;0.47;0.30;;;21.30;81.10;;;;;;6373521;28;20498;-52
2023/04/06 06:11:15;;;;;;;0.90;0.50;;;21.30;71.30;;;;;;6373718;28;20043;-49
2023/04/06 06:14:17;;;;;;;0.40;0.40;;;21.20;80.60;;;;;;6373424;28;20428;-49
2023/04/06 06:17:19;;;;;;;0.40;0.30;;;21.10;79.90;;;;;;6373295;28;20054;-51
2023/04/06 06:20:23;;;;;;;0.43;0.30;;;21.50;80.60;;;;;;6373594;28;20039;-49
2023/04/06 06:23:25;;;;;;;0.50;0.40;;;;;;;;;;6373394;28;20035;-48
2023/04/06 06:26:29;;;;;;;0.30;0.30;;;21.30;80.10;;;;;;6373697;28;20065;-49
2023/04/06 06:29:31;;;;;;;0.30;0.30;;;21.30;79.70;;;;;;6372864;28;20035;-50
2023/04/06 06:32:34;;;;;;;0.52;0.35;;;21.30;80.60;;;;;;6373054;28;20411;-49
2023/04/06 06:35:36;;;;;;;0.50;0.40;;;;;;;;;;6372923;28;20047;-51
2023/04/06 06:38:40;;;;;;;0.40;0.30;;;21.40;61.20;;;;;;6372726;28;20039;-52
2023/04/06 06:41:41;;;;;;;0.50;0.28;;;21.40;79.90;;;;;;6373026;28;20128;-52
2023/04/06 06:44:43;;;;;;;0.30;0.30;;;21.20;80.10;;;;;;6372503;28;20047;-51
2023/04/06 06:47:47;;;;;;;0.40;0.40;;;21.60;80.50;;;;;;6372589;28;20083;-48
2023/04/06 06:50:49;;;;;;;0.45;0.45;;;21.40;80.60;;;;;;6372847;28;20487;-48
2023/04/06 06:53:50;;;;;;;;;;;21.60;58.70;;;;;;6354535;28;20047;-50
2023/04/06 06:56:54;;;;;;;0.40;0.32;;;21.30;79.90;;;;;;6372512;28;20282;-52
2023/04/06 06:59:59;;;;;;;0.50;0.40;;;21.10;82.80;;;;;;6372688;28;20090;-53
2023/04/06 07:03:02;;;;;;;0.52;0.47;;;21.40;58.90;;;;;;6371777;28;20371;-50
2023/04/06 07:06:04;;;;;;;0.60;0.38;;;21.10;83.80;;;;;;6371153;27;20411;-52
2023/04/06 07:09:06;;;;;;;2.03;0.40;;;21.70;83.60;;;;;;6372550;28;20513;-48
2023/04/06 07:12:10;;;;;;;2.60;0.40;;;21.10;80.50;;;;;;6372274;28;20465;-51
2023/04/06 07:15:13;;;;;;;1.70;0.40;;;;;;;;;;6372463;28;20050;-49
2023/04/06 07:18:16;;;;;;;0.50;0.50;;;21.70;62.50;;;;;;6372598;28;20054;-53
2023/04/06 07:21:17;;;;;;;1.38;0.47;;;21.70;77.20;;;;;;6371779;28;20039;-50
2023/04/06 07:24:20;;;;;;;0.43;0.30;;;21.80;80.90;;;;;;6372340;28;20398;-50
2023/04/06 07:27:21;;;;;;;4.20;0.47;;;21.80;80.60;;;;;;6371924;28;20108;-46
2023/04/06 07:30:24;;;;;;;1.55;0.65;;;21.70;80.20;;;;;;6371676;28;20402;-52
2023/04/06 07:33:29;;;;;;;1.27;0.40;;;21.50;57.80;;;;;;6372113;28;20163;-48
2023/04/06 07:36:32;;;;;;;0.45;0.45;;;21.80;80.00;;;;;;6372784;28;20035;-49
2023/04/06 07:39:34;;;;;;;1.70;0.40;;;21.60;79.60;;;;;;6372185;28;20379;-49
2023/04/06 07:42:36;;;;;;;1.50;0.40;;;22.00;80.00;;;;;;6371499;28;20043;-51
2023/04/06 07:45:40;;;;;;;0.85;0.30;;;22.00;80.00;;;;;;6371799;28;20118;-51
2023/04/06 07:48:42;;;;;;;1.40;0.40;;;21.60;72.10;;;;;;6371292;28;20130;-51
2023/04/06 07:51:45;;;;;;;0.63;0.45;;;21.80;60.30;;;;;;6371780;28;20043;-50
2023/04/06 07:56:15;;;;;;;0.35;0.30;;;24.10;58.00;;;;;;6473681;27;20112;-50
2023/04/06 07:59:19;;;;;;;0.50;0.40;;;21.80;78.20;;;;;;6446093;27;20042;-52
2023/04/06 08:02:20;;;;;;;0.65;0.47;;;22.20;78.50;;;;;;6446416;27;20030;-50
2023/04/06 08:05:22;;;;;;;0.40;0.35;;;;;;;;;;6445867;27;20480;-54
2023/04/06 08:08:24;;;;;;;0.80;0.30;;;;;;;;;;6445729;27;20500;-52
2023/04/06 08:11:27;;;;;;;0.95;0.40;;;22.20;79.50;;;;;;6446185;27;20086;-52
2023/04/06 08:14:28;;;;;;;1.52;0.40;;;21.90;83.50;;;;;;6419631;27;20058;-51
2023/04/06 08:17:31;;;;;;;;;;;22.00;70.40;;;;;;6419996;27;20094;-52
2023/04/06 08:20:33;;;;;;;0.40;0.40;;;21.90;85.90;;;;;;6419285;27;19930;-49
2023/04/06 08:23:34;;;;;;;0.40;0.40;;;;;;;;;;6419069;27;20049;-52
2023/04/06 08:26:37;;;;;;;1.08;0.45;;;22.10;69.20;;;;;;6419653;27;20371;-51
2023/04/06 08:30:19;;;;;;;0.40;0.40;;;22.40;80.80;;;;;;6420082;27;20113;-51
2023/04/06 08:33:21;;;;;;;0.75;0.47;;;;;;;;;;6394359;27;20407;-50
2023/04/06 08:36:23;;;;;;;0.82;0.47;;;;;;;;;;6394360;27;20432;-51
2023/04/06 08:39:30;;;;;;;0.63;0.60;;;22.20;78.80;;;;;;6394071;27;20402;-46
2023/04/06 08:42:33;;;;;;;0.77;0.55;;;22.00;78.50;;;;;;6393810;27;20039;-51
2023/04/06 08:45:36;;;;;;;0.70;0.57;;;22.40;58.10;;;;;;6375321;27;20046;-50
2023/04/06 08:48:39;;;;;;;1.55;0.52;;;22.20;77.80;;;;;;6393653;27;20058;-49
2023/04/06 08:51:42;;;;;;;0.40;0.38;;;22.30;78.10;;;;;;6393920;27;20046;-51
2023/04/06 08:54:44;;;;;;;1.70;0.50;;;22.20;78.80;;;;;;6375256;27;20046;-50
2023/04/06 08:57:46;;;;;;;1.45;0.50;;;22.50;77.40;;;;;;6393506;27;20047;-49
2023/04/06 09:00:49;;;;;;;1.55;0.40;;;22.30;74.00;;;;;;6393204;27;20039;-49
2023/04/06 09:03:56;;;;;;;2.20;0.63;;;22.20;76.90;;;;;;6393172;27;20046;-47
2023/04/06 09:06:58;;;;;;;0.60;0.50;;;;;;;;;;6375444;27;20035;-50
2023/04/06 09:10:00;;;;;;;0.65;0.60;;;;;;;;;;6393465;27;20050;-51
2023/04/06 09:13:04;;;;;;;0.70;0.50;;;22.40;77.50;;;;;;6379879;27;20035;-49
2023/04/06 09:16:06;;;;;;;1.90;0.80;;;22.10;76.80;;;;;;6367962;27;20063;-51
2023/04/06 09:19:08;;;;;;;1.45;0.60;;;22.50;55.50;;;;;;6367524;28;20047;-47
2023/04/06 09:22:10;;;;;;;0.82;0.70;;;22.40;59.70;;;;;;6367636;27;20043;-51
2023/04/06 09:25:20;;;;;;;0.50;0.50;;;22.40;74.70;;;;;;6367091;27;20119;-50
2023/04/06 09:28:26;;;;;;;0.90;0.50;;;22.00;77.00;;;;;;6333341;28;20367;-52
2023/04/06 09:31:32;;;;;;;0.65;0.45;;;22.20;77.20;;;;;;6367065;27;20043;-49
2023/04/06 09:34:35;;;;;;;0.63;0.55;;;;;;;;;;6366996;28;20356;-52
2023/04/06 09:37:39;;;;;;;0.38;0.30;;;22.20;77.50;;;;;;6367637;27;20048;-51
2023/04/06 09:40:50;;;;;;;1.35;0.50;;;22.30;52.60;;;;;;6355863;28;20483;-49
2023/04/06 09:44:03;;;;;;;1.15;0.40;;;22.30;77.00;;;;;;6350577;28;20043;-51
2023/04/06 09:47:07;;;;;;;1.00;0.70;;;22.30;78.00;;;;;;6332544;28;20044;-52
2023/04/06 09:50:11;;;;;;;0.38;0.35;;;22.40;77.50;;;;;;6349664;28;20505;-51
2023/04/06 09:53:13;;;;;;;0.32;0.32;;;22.20;77.20;;;;;;6315012;28;20077;-51
2023/04/06 09:56:20;;;;;;;0.40;0.40;;;22.50;77.50;;;;;;6350351;28;20040;-49
2023/04/06 09:59:38;;;;;;;0.60;0.45;;;22.50;77.60;;;;;;6316079;28;20093;-50
2023/04/06 10:02:46;;;;;;;0.30;0.30;;;22.60;77.80;;;;;;6349694;28;20031;-46
2023/04/06 10:05:59;;;;;;;0.40;0.40;;;22.50;77.80;;;;;;6349391;28;20406;-52
2023/04/06 10:09:03;;;;;;;0.95;0.40;;;22.20;77.70;;;;;;6349990;28;20157;-52
2023/04/06 10:12:06;;;;;;;0.63;0.40;;;22.20;78.00;;;;;;6331484;28;20551;-50
2023/04/06 10:15:09;;;;;;;0.22;0.22;;;22.00;77.80;;;;;;6331077;28;20043;-51
2023/04/06 10:18:12;;;;;;;0.50;0.40;;;22.20;78.00;;;;;;6349456;28;20058;-53
2023/04/06 10:21:18;;;;;;;0.70;0.30;;;22.60;78.30;;;;;;6349959;28;20043;-52
2023/04/06 10:24:23;;;;;;;0.30;0.28;;;;;;;;;;6349256;28;20051;-53
2023/04/06 10:27:29;;;;;;;0.50;0.20;;;22.30;57.20;;;;;;6349434;28;20040;-48
2023/04/06 10:30:32;;;;;;;0.50;0.40;;;22.70;78.90;;;;;;6314378;28;20503;-53
2023/04/06 10:33:34;;;;;;;0.20;0.20;;;22.40;78.90;;;;;;6349043;28;20040;-50
2023/04/06 10:36:36;;;;;;;0.30;0.30;;;22.40;71.90;;;;;;6330875;28;20376;-50
2023/04/06 10:39:54;;;;;;;0.30;0.30;;;22.30;79.00;;;;;;6349307;28;20043;-52
2023/04/06 10:43:08;;;;;;;0.40;0.35;;;22.20;79.10;;;;;;6316182;28;20051;-50
2023/04/06 10:46:11;;;;;;;0.28;0.20;;;22.40;79.10;;;;;;6329458;28;20028;-52
2023/04/06 10:49:13;;;;;;;0.28;0.25;;;22.50;79.50;;;;;;6349786;28;20062;-51
2023/04/06 10:52:15;;;;;;;0.30;0.30;;;22.30;79.30;;;;;;6348437;28;20109;-50
2023/04/06 10:55:21;;;;;;;0.20;0.20;;;22.50;79.50;;;;;;6349591;28;20050;-52
2023/04/06 10:58:25;;;;;;;0.50;0.40;;;22.50;79.60;;;;;;6348665;28;20039;-53
2023/04/06 11:01:27;;;;;;;0.40;0.40;;;22.50;79.60;;;;;;6330574;28;20453;-52
2023/04/06 11:04:30;;;;;;;2.05;0.52;;;22.40;79.70;;;;;;6348513;28;20047;-52
2023/04/06 11:07:31;;;;;;;0.30;0.30;;;;;;;;;;6347862;28;20387;-50
2023/04/06 11:10:33;;;;;;;0.40;0.40;;;22.60;79.70;;;;;;6312837;28;20047;-51
2023/04/06 11:13:42;;;;;;;0.30;0.20;;;22.30;58.30;;;;;;6348258;28;20050;-50
2023/04/06 11:16:47;;;;;;;2.25;0.20;;;22.60;80.00;;;;;;6330134;28;20043;-53
2023/04/06 11:19:56;;;;;;;0.30;0.30;;;22.30;55.10;;;;;;6347902;28;20054;-51
2023/04/06 11:22:58;;;;;;;0.30;0.20;;;;;;;;;;6348329;28;20391;-52
2023/04/06 11:26:00;;;;;;;0.90;0.50;;;;;;;;;;6348277;28;20088;-53
2023/04/06 11:29:02;;;;;;;0.90;0.25;;;22.30;80.00;;;;;;6347679;28;20084;-49
2023/04/06 11:32:05;;;;;;;1.00;0.25;;;22.40;67.40;;;;;;6347830;28;20043;-50
2023/04/06 11:35:11;;;;;;;1.27;0.30;;;22.80;83.40;;;;;;6347366;28;20039;-48
2023/04/06 11:38:12;;;;;;;0.57;0.30;;;22.70;79.80;;;;;;6329430;28;20054;-49
2023/04/06 11:41:14;;;;;;;0.63;0.38;;;22.70;79.80;;;;;;6346962;28;20393;-51
2023/04/06 11:44:27;;;;;;;0.22;0.22;;;22.60;79.70;;;;;;6347234;28;20435;-50
2023/04/06 11:47:30;;;;;;;0.43;0.32;;;22.70;79.80;;;;;;6347301;28;20095;-51
2023/04/06 11:50:34;;;;;;;0.45;0.30;;;22.50;79.80;;;;;;6329387;28;20392;-50
2023/04/06 11:53:45;;;;;;;0.98;0.32;;;22.60;79.90;;;;;;6347270;28;20043;-52
2023/04/06 11:56:47;;;;;;;0.22;0.22;;;;;;;;;;6347168;28;20046;-51
2023/04/06 11:59:49;;;;;;;0.60;0.43;;;22.60;79.90;;;;;;6328349;28;20047;-49
2023/04/06 12:02:51;;;;;;;0.30;0.30;;;22.40;79.70;;;;;;6347191;28;20050;-52
2023/04/06 12:05:53;;;;;;;0.30;0.30;;;22.20;79.80;;;;;;6346001;28;20100;-50
2023/04/06 12:08:54;;;;;;;0.30;0.30;;;22.60;79.70;;;;;;6346823;28;20050;-52
2023/04/06 12:11:56;;;;;;;0.30;0.30;;;22.70;79.70;;;;;;6347537;28;20080;-50
2023/04/06 12:14:58;;;;;;;0.30;0.30;;;22.80;79.70;;;;;;6328910;28;20035;-50
2023/04/06 12:18:00;;;;;;;0.50;0.20;;;22.70;79.60;;;;;;6328673;28;20043;-45
2023/04/06 12:21:02;;;;;;;0.32;0.20;;;22.70;79.70;;;;;;6346712;28;20043;-48
2023/04/06 12:24:05;;;;;;;0.22;0.20;;;22.70;80.10;;;;;;6344982;28;20078;-52
2023/04/06 12:27:08;;;;;;;0.30;0.25;;;22.40;84.50;;;;;;6328901;28;20133;-50
2023/04/06 12:30:12;;;;;;;0.40;0.30;;;;;;;;;;6346690;28;20126;-49
2023/04/06 12:33:14;;;;;;;0.43;0.30;;;22.60;80.80;;;;;;6346371;28;20043;-51
2023/04/06 12:36:20;;;;;;;0.40;0.30;;;22.50;80.00;;;;;;6346417;28;20054;-52
2023/04/06 12:39:27;;;;;;;0.20;0.20;;;22.80;80.10;;;;;;6346629;28;20163;-47
2023/04/06 12:42:28;;;;;;;0.32;0.28;;;22.50;80.50;;;;;;6328405;28;20414;-49
2023/04/06 12:45:32;;;;;;;0.43;0.30;;;22.40;80.60;;;;;;6346319;28;20040;-50
2023/04/06 12:48:34;;;;;;;0.85;0.28;;;22.70;80.80;;;;;;6345723;28;20056;-52
2023/04/06 12:51:36;;;;;;;0.30;0.30;;;22.90;80.50;;;;;;6346837;28;20039;-48
2023/04/06 12:54:41;;;;;;;0.47;0.35;;;22.70;79.70;;;;;;6346246;28;20044;-49
2023/04/06 12:57:43;;;;;;;0.28;0.20;;;22.50;80.30;;;;;;6346466;28;20043;-46
2023/04/06 13:00:45;;;;;;;0.30;0.20;;;22.60;80.40;;;;;;6346601;28;20055;-49
2023/04/06 13:03:46;;;;;;;0.80;0.40;;;22.70;73.30;;;;;;6346806;28;20391;-45
2023/04/06 13:06:49;;;;;;;1.40;0.30;;;22.60;80.70;;;;;;6327769;28;20040;-45
2023/04/06 13:09:51;;;;;;;0.55;0.30;;;22.50;80.40;;;;;;6346417;28;20047;-51
2023/04/06 13:12:53;;;;;;;0.85;0.40;;;22.50;79.80;;;;;;6345864;28;20050;-49
2023/04/06 13:16:01;;;;;;;0.30;0.20;;;21.50;57.90;;;;;;6348832;28;20047;-50
2023/04/06 13:19:03;;;;;;;1.13;0.30;;;22.70;79.90;;;;;;6350440;28;20046;-51
2023/04/06 13:22:05;;;;;;;0.40;0.32;;;22.90;80.10;;;;;;6350213;28;20037;-51
2023/04/06 13:25:07;;;;;;;0.30;0.20;;;22.40;63.80;;;;;;6350427;28;20040;-52
2023/04/06 13:28:09;;;;;;;0.40;0.25;;;22.60;71.80;;;;;;6350173;28;20089;-51
2023/04/06 13:31:12;;;;;;;0.22;0.20;;;23.00;80.90;;;;;;6349981;28;20075;-52
2023/04/06 13:34:14;;;;;;;0.38;0.20;;;22.80;80.20;;;;;;6350432;28;20114;-51
2023/04/06 13:37:16;;;;;;;1.13;0.20;;;22.70;62.60;;;;;;6350543;28;20385;-54
2023/04/06 13:40:18;;;;;;;0.45;0.38;;;22.40;80.80;;;;;;6350026;28;20048;-51
2023/04/06 13:43:20;;;;;;;0.28;0.20;;;23.00;80.70;;;;;;6331808;28;20047;-50
2023/04/06 13:55:57;;;;;;;0.30;0.20;;;22.80;47.80;;;;;;6445655;27;20045;-51
2023/04/06 13:58:59;;;;;;;0.30;0.30;;;22.80;47.60;;;;;;6446072;27;20396;-48
2023/04/06 14:02:05;;;;;;;0.32;0.20;;;22.90;47.50;;;;;;6445554;27;20049;-49
2023/04/06 14:05:07;;;;;;;0.95;0.20;;;22.80;47.20;;;;;;6445203;27;20061;-51
2023/04/06 14:08:12;;;;;;;0.30;0.30;;;22.90;47.10;;;;;;6445568;27;20045;-49
